sensor_id;sensor_type;location;lat;lon;timestamp;temperature;humidity
13326;DHT22;6732;51.044;3.746;2023-06-14T00:00:59;29.60;49.00
13326;DHT22;6732;51.044;3.746;2023-06-14T00:03:25;29.60;49.10
13326;DHT22;6732;51.044;3.746;2023-06-14T00:05:51;29.60;49.10
13326;DHT22;6732;51.044;3.746;2023-06-14T00:08:17;29.60;49.10
13326;DHT22;6732;51.044;3.746;2023-06-14T00:10:44;29.60;49.10
13326;DHT22;6732;51.044;3.746;2023-06-14T00:13:11;29.60;49.10
13326;DHT22;6732;51.044;3.746;2023-06-14T00:15:38;29.60;49.20
13326;DHT22;6732;51.044;3.746;2023-06-14T00:18:04;29.60;49.20
13326;DHT22;6732;51.044;3.746;2023-06-14T00:20:32;29.60;49.10
13326;DHT22;6732;51.044;3.746;2023-06-14T00:22:59;29.60;49.10
13326;DHT22;6732;51.044;3.746;2023-06-14T00:25:25;29.60;49.10
13326;DHT22;6732;51.044;3.746;2023-06-14T00:27:52;29.60;49.20
13326;DHT22;6732;51.044;3.746;2023-06-14T00:30:18;29.60;49.20
13326;DHT22;6732;51.044;3.746;2023-06-14T00:32:45;29.50;49.20
13326;DHT22;6732;51.044;3.746;2023-06-14T00:35:11;29.50;49.10
13326;DHT22;6732;51.044;3.746;2023-06-14T00:37:37;29.60;49.20
13326;DHT22;6732;51.044;3.746;2023-06-14T00:40:04;29.50;49.30
13326;DHT22;6732;51.044;3.746;2023-06-14T00:42:30;29.50;49.30
13326;DHT22;6732;51.044;3.746;2023-06-14T00:44:57;29.50;49.30
13326;DHT22;6732;51.044;3.746;2023-06-14T00:47:23;29.50;49.30
13326;DHT22;6732;51.044;3.746;2023-06-14T00:49:50;29.50;49.30
13326;DHT22;6732;51.044;3.746;2023-06-14T00:52:19;29.50;49.30
13326;DHT22;6732;51.044;3.746;2023-06-14T00:54:45;29.50;49.40
13326;DHT22;6732;51.044;3.746;2023-06-14T00:57:12;29.50;49.40
13326;DHT22;6732;51.044;3.746;2023-06-14T00:59:48;29.50;49.40
13326;DHT22;6732;51.044;3.746;2023-06-14T01:02:15;29.50;49.40
13326;DHT22;6732;51.044;3.746;2023-06-14T01:04:43;29.50;49.50
13326;DHT22;6732;51.044;3.746;2023-06-14T01:12:48;29.50;49.60
13326;DHT22;6732;51.044;3.746;2023-06-14T01:15:17;29.50;49.50
13326;DHT22;6732;51.044;3.746;2023-06-14T01:17:44;29.40;49.50
13326;DHT22;6732;51.044;3.746;2023-06-14T01:20:12;29.40;49.50
13326;DHT22;6732;51.044;3.746;2023-06-14T01:22:53;29.40;49.60
13326;DHT22;6732;51.044;3.746;2023-06-14T01:25:20;29.40;49.60
13326;DHT22;6732;51.044;3.746;2023-06-14T01:28:00;29.40;49.60
13326;DHT22;6732;51.044;3.746;2023-06-14T01:30:29;29.40;49.60
13326;DHT22;6732;51.044;3.746;2023-06-14T01:32:57;29.40;49.60
13326;DHT22;6732;51.044;3.746;2023-06-14T01:35:23;29.40;49.60
13326;DHT22;6732;51.044;3.746;2023-06-14T01:37:50;29.40;49.70
13326;DHT22;6732;51.044;3.746;2023-06-14T01:40:18;29.40;49.60
13326;DHT22;6732;51.044;3.746;2023-06-14T01:42:47;29.40;49.60
13326;DHT22;6732;51.044;3.746;2023-06-14T01:45:15;29.40;49.60
13326;DHT22;6732;51.044;3.746;2023-06-14T01:47:41;29.40;49.60
13326;DHT22;6732;51.044;3.746;2023-06-14T01:50:08;29.40;49.70
13326;DHT22;6732;51.044;3.746;2023-06-14T01:52:34;29.40;49.60
13326;DHT22;6732;51.044;3.746;2023-06-14T01:55:00;29.30;49.60
13326;DHT22;6732;51.044;3.746;2023-06-14T01:57:28;29.30;49.60
13326;DHT22;6732;51.044;3.746;2023-06-14T01:59:55;29.30;49.60
13326;DHT22;6732;51.044;3.746;2023-06-14T02:02:21;29.30;49.70
13326;DHT22;6732;51.044;3.746;2023-06-14T02:04:46;29.30;49.70
13326;DHT22;6732;51.044;3.746;2023-06-14T02:07:13;29.30;49.70
13326;DHT22;6732;51.044;3.746;2023-06-14T02:09:41;29.30;49.70
13326;DHT22;6732;51.044;3.746;2023-06-14T02:12:07;29.30;49.80
13326;DHT22;6732;51.044;3.746;2023-06-14T02:14:33;29.30;49.80
13326;DHT22;6732;51.044;3.746;2023-06-14T02:16:59;29.30;49.80
13326;DHT22;6732;51.044;3.746;2023-06-14T02:19:26;29.30;49.80
13326;DHT22;6732;51.044;3.746;2023-06-14T02:21:52;29.30;49.80
13326;DHT22;6732;51.044;3.746;2023-06-14T02:24:18;29.30;49.80
13326;DHT22;6732;51.044;3.746;2023-06-14T02:26:44;29.30;49.80
13326;DHT22;6732;51.044;3.746;2023-06-14T02:29:10;29.30;49.80
13326;DHT22;6732;51.044;3.746;2023-06-14T02:31:38;29.30;49.80
13326;DHT22;6732;51.044;3.746;2023-06-14T02:34:04;29.30;49.80
13326;DHT22;6732;51.044;3.746;2023-06-14T02:53:24;29.20;49.80
13326;DHT22;6732;51.044;3.746;2023-06-14T02:55:57;29.20;49.80
13326;DHT22;6732;51.044;3.746;2023-06-14T02:58:22;29.20;49.80
13326;DHT22;6732;51.044;3.746;2023-06-14T03:00:50;29.10;49.80
13326;DHT22;6732;51.044;3.746;2023-06-14T03:03:18;29.10;49.80
13326;DHT22;6732;51.044;3.746;2023-06-14T03:05:48;29.10;49.80
13326;DHT22;6732;51.044;3.746;2023-06-14T03:08:15;29.10;49.80
13326;DHT22;6732;51.044;3.746;2023-06-14T03:10:46;29.10;49.70
13326;DHT22;6732;51.044;3.746;2023-06-14T03:13:16;29.10;49.80
13326;DHT22;6732;51.044;3.746;2023-06-14T03:15:42;29.10;49.70
13326;DHT22;6732;51.044;3.746;2023-06-14T03:18:09;29.10;49.70
13326;DHT22;6732;51.044;3.746;2023-06-14T03:20:35;29.10;49.70
13326;DHT22;6732;51.044;3.746;2023-06-14T03:23:02;29.10;49.70
13326;DHT22;6732;51.044;3.746;2023-06-14T03:25:29;29.10;49.70
13326;DHT22;6732;51.044;3.746;2023-06-14T03:28:01;29.10;49.70
13326;DHT22;6732;51.044;3.746;2023-06-14T03:30:29;29.10;49.70
13326;DHT22;6732;51.044;3.746;2023-06-14T03:32:55;29.10;49.60
13326;DHT22;6732;51.044;3.746;2023-06-14T03:35:22;29.00;49.60
13326;DHT22;6732;51.044;3.746;2023-06-14T03:37:48;29.00;49.60
13326;DHT22;6732;51.044;3.746;2023-06-14T03:40:32;29.00;49.60
13326;DHT22;6732;51.044;3.746;2023-06-14T03:42:58;29.00;49.60
13326;DHT22;6732;51.044;3.746;2023-06-14T03:45:24;29.00;49.60
13326;DHT22;6732;51.044;3.746;2023-06-14T03:47:49;29.00;49.60
13326;DHT22;6732;51.044;3.746;2023-06-14T03:50:17;29.00;49.60
13326;DHT22;6732;51.044;3.746;2023-06-14T03:52:44;29.00;49.60
13326;DHT22;6732;51.044;3.746;2023-06-14T03:55:10;29.00;49.60
13326;DHT22;6732;51.044;3.746;2023-06-14T03:57:38;29.00;49.60
13326;DHT22;6732;51.044;3.746;2023-06-14T04:00:05;29.00;49.60
13326;DHT22;6732;51.044;3.746;2023-06-14T04:02:31;29.00;49.60
13326;DHT22;6732;51.044;3.746;2023-06-14T04:04:57;29.00;49.60
13326;DHT22;6732;51.044;3.746;2023-06-14T04:07:23;29.00;49.60
13326;DHT22;6732;51.044;3.746;2023-06-14T04:09:50;28.90;49.60
13326;DHT22;6732;51.044;3.746;2023-06-14T04:12:16;28.90;49.60
13326;DHT22;6732;51.044;3.746;2023-06-14T04:14:43;28.90;49.60
13326;DHT22;6732;51.044;3.746;2023-06-14T04:17:08;28.90;49.50
13326;DHT22;6732;51.044;3.746;2023-06-14T04:19:34;28.90;49.50
13326;DHT22;6732;51.044;3.746;2023-06-14T04:22:00;28.90;49.50
13326;DHT22;6732;51.044;3.746;2023-06-14T04:24:28;28.90;49.50
13326;DHT22;6732;51.044;3.746;2023-06-14T04:27:00;28.90;49.30
13326;DHT22;6732;51.044;3.746;2023-06-14T04:29:27;28.90;49.40
13326;DHT22;6732;51.044;3.746;2023-06-14T04:31:55;28.90;49.30
13326;DHT22;6732;51.044;3.746;2023-06-14T04:34:28;28.80;49.30
13326;DHT22;6732;51.044;3.746;2023-06-14T04:36:57;28.80;49.30
13326;DHT22;6732;51.044;3.746;2023-06-14T04:39:24;28.80;49.30
13326;DHT22;6732;51.044;3.746;2023-06-14T04:41:50;28.80;49.30
13326;DHT22;6732;51.044;3.746;2023-06-14T04:44:21;28.80;49.30
13326;DHT22;6732;51.044;3.746;2023-06-14T04:46:50;28.80;49.30
13326;DHT22;6732;51.044;3.746;2023-06-14T04:49:16;28.80;49.30
13326;DHT22;6732;51.044;3.746;2023-06-14T04:51:44;28.80;49.30
13326;DHT22;6732;51.044;3.746;2023-06-14T04:54:11;28.80;49.30
13326;DHT22;6732;51.044;3.746;2023-06-14T04:56:41;28.80;49.20
13326;DHT22;6732;51.044;3.746;2023-06-14T04:59:08;28.80;49.30
13326;DHT22;6732;51.044;3.746;2023-06-14T05:01:34;28.80;49.20
13326;DHT22;6732;51.044;3.746;2023-06-14T05:04:01;28.70;49.20
13326;DHT22;6732;51.044;3.746;2023-06-14T05:06:26;28.70;49.20
13326;DHT22;6732;51.044;3.746;2023-06-14T05:08:56;28.80;49.20
13326;DHT22;6732;51.044;3.746;2023-06-14T05:11:22;28.70;49.20
13326;DHT22;6732;51.044;3.746;2023-06-14T05:13:50;28.70;49.20
13326;DHT22;6732;51.044;3.746;2023-06-14T05:16:17;28.70;49.20
13326;DHT22;6732;51.044;3.746;2023-06-14T05:18:45;28.70;49.30
13326;DHT22;6732;51.044;3.746;2023-06-14T05:21:13;28.70;49.30
13326;DHT22;6732;51.044;3.746;2023-06-14T05:23:43;28.70;49.40
13326;DHT22;6732;51.044;3.746;2023-06-14T05:26:10;28.70;49.40
13326;DHT22;6732;51.044;3.746;2023-06-14T05:28:36;28.70;49.50
13326;DHT22;6732;51.044;3.746;2023-06-14T05:31:02;28.70;49.50
13326;DHT22;6732;51.044;3.746;2023-06-14T05:33:28;28.70;49.50
13326;DHT22;6732;51.044;3.746;2023-06-14T05:35:54;28.70;49.50
13326;DHT22;6732;51.044;3.746;2023-06-14T05:38:21;28.70;49.50
13326;DHT22;6732;51.044;3.746;2023-06-14T05:40:47;28.70;49.60
13326;DHT22;6732;51.044;3.746;2023-06-14T05:43:13;28.60;49.50
13326;DHT22;6732;51.044;3.746;2023-06-14T05:45:39;28.60;49.50
13326;DHT22;6732;51.044;3.746;2023-06-14T05:48:05;28.60;49.50
13326;DHT22;6732;51.044;3.746;2023-06-14T05:50:31;28.60;49.50
13326;DHT22;6732;51.044;3.746;2023-06-14T05:52:57;28.60;49.60
13326;DHT22;6732;51.044;3.746;2023-06-14T05:55:22;28.60;49.50
13326;DHT22;6732;51.044;3.746;2023-06-14T05:57:48;28.60;49.60
13326;DHT22;6732;51.044;3.746;2023-06-14T06:00:15;28.60;49.60
13326;DHT22;6732;51.044;3.746;2023-06-14T06:02:42;28.60;49.60
13326;DHT22;6732;51.044;3.746;2023-06-14T06:05:12;28.60;49.50
13326;DHT22;6732;51.044;3.746;2023-06-14T06:07:38;28.60;49.60
13326;DHT22;6732;51.044;3.746;2023-06-14T06:10:10;28.60;49.50
13326;DHT22;6732;51.044;3.746;2023-06-14T06:12:37;28.60;49.50
13326;DHT22;6732;51.044;3.746;2023-06-14T06:15:03;28.60;49.60
13326;DHT22;6732;51.044;3.746;2023-06-14T06:17:29;28.60;49.60
13326;DHT22;6732;51.044;3.746;2023-06-14T06:19:55;28.60;49.80
13326;DHT22;6732;51.044;3.746;2023-06-14T06:22:21;28.60;49.90
13326;DHT22;6732;51.044;3.746;2023-06-14T06:24:47;28.60;49.60
13326;DHT22;6732;51.044;3.746;2023-06-14T06:27:13;28.60;49.60
13326;DHT22;6732;51.044;3.746;2023-06-14T06:29:41;28.60;49.60
13326;DHT22;6732;51.044;3.746;2023-06-14T06:32:07;28.60;49.60
13326;DHT22;6732;51.044;3.746;2023-06-14T06:34:33;28.60;49.60
13326;DHT22;6732;51.044;3.746;2023-06-14T06:36:59;28.50;49.50
13326;DHT22;6732;51.044;3.746;2023-06-14T06:39:26;28.60;49.60
13326;DHT22;6732;51.044;3.746;2023-06-14T06:41:52;28.50;49.60
13326;DHT22;6732;51.044;3.746;2023-06-14T06:44:18;28.50;49.50
13326;DHT22;6732;51.044;3.746;2023-06-14T06:46:44;28.50;49.50
13326;DHT22;6732;51.044;3.746;2023-06-14T06:49:10;28.50;49.60
13326;DHT22;6732;51.044;3.746;2023-06-14T06:51:40;28.50;49.60
13326;DHT22;6732;51.044;3.746;2023-06-14T06:54:07;28.50;49.50
13326;DHT22;6732;51.044;3.746;2023-06-14T06:56:34;28.50;49.40
13326;DHT22;6732;51.044;3.746;2023-06-14T06:59:01;28.50;49.50
13326;DHT22;6732;51.044;3.746;2023-06-14T07:01:27;28.50;49.50
13326;DHT22;6732;51.044;3.746;2023-06-14T07:03:57;28.50;49.50
13326;DHT22;6732;51.044;3.746;2023-06-14T07:06:23;28.50;49.40
13326;DHT22;6732;51.044;3.746;2023-06-14T07:08:52;28.50;49.50
13326;DHT22;6732;51.044;3.746;2023-06-14T07:11:18;28.50;49.50
13326;DHT22;6732;51.044;3.746;2023-06-14T07:13:44;28.50;49.50
13326;DHT22;6732;51.044;3.746;2023-06-14T07:16:11;28.50;49.60
13326;DHT22;6732;51.044;3.746;2023-06-14T07:18:37;28.50;49.60
13326;DHT22;6732;51.044;3.746;2023-06-14T07:21:03;28.50;49.80
13326;DHT22;6732;51.044;3.746;2023-06-14T07:23:29;28.50;49.70
13326;DHT22;6732;51.044;3.746;2023-06-14T07:25:55;28.50;49.70
13326;DHT22;6732;51.044;3.746;2023-06-14T07:28:20;28.50;49.80
13326;DHT22;6732;51.044;3.746;2023-06-14T07:30:46;28.40;50.00
13326;DHT22;6732;51.044;3.746;2023-06-14T07:33:14;28.40;50.00
13326;DHT22;6732;51.044;3.746;2023-06-14T07:35:40;28.40;49.90
13326;DHT22;6732;51.044;3.746;2023-06-14T07:38:06;28.40;49.90
13326;DHT22;6732;51.044;3.746;2023-06-14T07:40:32;28.50;49.90
13326;DHT22;6732;51.044;3.746;2023-06-14T07:42:57;28.50;49.80
13326;DHT22;6732;51.044;3.746;2023-06-14T07:45:23;28.40;49.80
13326;DHT22;6732;51.044;3.746;2023-06-14T07:47:49;28.40;49.80
13326;DHT22;6732;51.044;3.746;2023-06-14T07:50:15;28.40;49.80
13326;DHT22;6732;51.044;3.746;2023-06-14T07:52:41;28.40;49.70
13326;DHT22;6732;51.044;3.746;2023-06-14T07:55:08;28.40;49.80
13326;DHT22;6732;51.044;3.746;2023-06-14T07:57:34;28.40;49.80
13326;DHT22;6732;51.044;3.746;2023-06-14T08:00:01;28.40;49.80
13326;DHT22;6732;51.044;3.746;2023-06-14T08:02:27;28.40;49.90
13326;DHT22;6732;51.044;3.746;2023-06-14T08:04:52;28.40;49.80
13326;DHT22;6732;51.044;3.746;2023-06-14T08:07:18;28.40;49.90
13326;DHT22;6732;51.044;3.746;2023-06-14T08:09:44;28.40;50.20
13326;DHT22;6732;51.044;3.746;2023-06-14T08:12:10;28.40;50.60
13326;DHT22;6732;51.044;3.746;2023-06-14T08:14:36;28.40;50.00
13326;DHT22;6732;51.044;3.746;2023-06-14T08:17:02;28.40;50.60
13326;DHT22;6732;51.044;3.746;2023-06-14T08:19:28;28.40;50.80
13326;DHT22;6732;51.044;3.746;2023-06-14T08:21:54;28.40;50.70
13326;DHT22;6732;51.044;3.746;2023-06-14T08:24:21;28.40;50.90
13326;DHT22;6732;51.044;3.746;2023-06-14T08:26:50;28.40;50.90
13326;DHT22;6732;51.044;3.746;2023-06-14T08:29:16;28.40;51.00
13326;DHT22;6732;51.044;3.746;2023-06-14T08:31:42;28.40;51.00
13326;DHT22;6732;51.044;3.746;2023-06-14T08:34:08;28.40;51.00
13326;DHT22;6732;51.044;3.746;2023-06-14T08:36:35;28.40;51.00
13326;DHT22;6732;51.044;3.746;2023-06-14T08:39:01;28.40;51.00
13326;DHT22;6732;51.044;3.746;2023-06-14T08:41:28;28.40;51.00
13326;DHT22;6732;51.044;3.746;2023-06-14T08:43:56;28.40;51.00
13326;DHT22;6732;51.044;3.746;2023-06-14T08:46:25;28.40;51.00
13326;DHT22;6732;51.044;3.746;2023-06-14T08:48:55;28.40;51.00
13326;DHT22;6732;51.044;3.746;2023-06-14T08:51:22;28.40;51.00
13326;DHT22;6732;51.044;3.746;2023-06-14T08:53:53;28.40;51.00
13326;DHT22;6732;51.044;3.746;2023-06-14T08:56:26;28.40;51.00
13326;DHT22;6732;51.044;3.746;2023-06-14T08:58:53;28.40;51.00
13326;DHT22;6732;51.044;3.746;2023-06-14T09:01:20;28.40;50.90
13326;DHT22;6732;51.044;3.746;2023-06-14T09:03:49;28.40;51.00
13326;DHT22;6732;51.044;3.746;2023-06-14T09:06:15;28.40;50.90
13326;DHT22;6732;51.044;3.746;2023-06-14T09:08:45;28.40;51.00
13326;DHT22;6732;51.044;3.746;2023-06-14T09:11:13;28.40;50.90
13326;DHT22;6732;51.044;3.746;2023-06-14T09:13:40;28.40;50.90
13326;DHT22;6732;51.044;3.746;2023-06-14T09:16:07;28.40;50.90
13326;DHT22;6732;51.044;3.746;2023-06-14T09:18:35;28.40;50.90
13326;DHT22;6732;51.044;3.746;2023-06-14T09:21:01;28.40;50.90
13326;DHT22;6732;51.044;3.746;2023-06-14T09:23:27;28.40;50.90
13326;DHT22;6732;51.044;3.746;2023-06-14T09:25:54;28.40;50.90
13326;DHT22;6732;51.044;3.746;2023-06-14T09:28:20;28.50;50.90
13326;DHT22;6732;51.044;3.746;2023-06-14T09:30:52;28.40;50.90
13326;DHT22;6732;51.044;3.746;2023-06-14T09:33:20;28.40;50.90
13326;DHT22;6732;51.044;3.746;2023-06-14T09:35:50;28.40;50.80
13326;DHT22;6732;51.044;3.746;2023-06-14T09:38:16;28.50;50.80
13326;DHT22;6732;51.044;3.746;2023-06-14T09:40:42;28.40;50.80
13326;DHT22;6732;51.044;3.746;2023-06-14T09:43:08;28.50;50.80
13326;DHT22;6732;51.044;3.746;2023-06-14T09:45:36;28.50;50.80
13326;DHT22;6732;51.044;3.746;2023-06-14T09:48:06;28.50;50.80
13326;DHT22;6732;51.044;3.746;2023-06-14T09:50:32;28.50;50.80
13326;DHT22;6732;51.044;3.746;2023-06-14T09:53:10;28.50;50.80
13326;DHT22;6732;51.044;3.746;2023-06-14T09:55:37;28.50;50.80
13326;DHT22;6732;51.044;3.746;2023-06-14T09:58:07;28.50;50.80
13326;DHT22;6732;51.044;3.746;2023-06-14T10:00:33;28.50;50.70
13326;DHT22;6732;51.044;3.746;2023-06-14T10:03:11;28.50;50.60
13326;DHT22;6732;51.044;3.746;2023-06-14T10:05:37;28.50;50.60
13326;DHT22;6732;51.044;3.746;2023-06-14T10:08:07;28.50;50.40
13326;DHT22;6732;51.044;3.746;2023-06-14T10:10:34;28.50;50.40
13326;DHT22;6732;51.044;3.746;2023-06-14T10:13:00;28.50;50.40
13326;DHT22;6732;51.044;3.746;2023-06-14T10:18:24;28.50;50.50
13326;DHT22;6732;51.044;3.746;2023-06-14T10:21:08;28.50;50.30
13326;DHT22;6732;51.044;3.746;2023-06-14T10:23:41;28.60;50.30
13326;DHT22;6732;51.044;3.746;2023-06-14T10:26:08;28.60;50.20
13326;DHT22;6732;51.044;3.746;2023-06-14T10:29:07;28.60;50.20
13326;DHT22;6732;51.044;3.746;2023-06-14T10:31:44;28.60;50.00
13326;DHT22;6732;51.044;3.746;2023-06-14T10:34:12;28.60;50.00
13326;DHT22;6732;51.044;3.746;2023-06-14T10:37:21;28.60;50.00
13326;DHT22;6732;51.044;3.746;2023-06-14T10:39:46;28.60;50.00
13326;DHT22;6732;51.044;3.746;2023-06-14T10:42:13;28.60;50.00
13326;DHT22;6732;51.044;3.746;2023-06-14T10:44:41;28.60;50.00
13326;DHT22;6732;51.044;3.746;2023-06-14T10:47:33;28.60;50.00
13326;DHT22;6732;51.044;3.746;2023-06-14T10:50:07;28.60;50.00
13326;DHT22;6732;51.044;3.746;2023-06-14T10:52:40;28.60;49.90
13326;DHT22;6732;51.044;3.746;2023-06-14T10:55:16;28.60;49.80
13326;DHT22;6732;51.044;3.746;2023-06-14T10:57:52;28.60;49.90
13326;DHT22;6732;51.044;3.746;2023-06-14T11:00:22;28.60;49.90
13326;DHT22;6732;51.044;3.746;2023-06-14T11:05:52;28.70;50.00
13326;DHT22;6732;51.044;3.746;2023-06-14T11:11:07;28.70;50.00
13326;DHT22;6732;51.044;3.746;2023-06-14T11:13:36;28.70;49.90
13326;DHT22;6732;51.044;3.746;2023-06-14T11:16:13;28.70;49.90
13326;DHT22;6732;51.044;3.746;2023-06-14T11:18:40;28.70;49.90
13326;DHT22;6732;51.044;3.746;2023-06-14T11:21:07;28.70;49.90
13326;DHT22;6732;51.044;3.746;2023-06-14T11:23:35;28.70;50.00
13326;DHT22;6732;51.044;3.746;2023-06-14T11:26:01;28.70;50.00
13326;DHT22;6732;51.044;3.746;2023-06-14T11:28:38;28.70;49.80
13326;DHT22;6732;51.044;3.746;2023-06-14T11:31:06;28.70;49.90
13326;DHT22;6732;51.044;3.746;2023-06-14T11:33:33;28.70;49.90
13326;DHT22;6732;51.044;3.746;2023-06-14T11:36:02;28.70;49.90
13326;DHT22;6732;51.044;3.746;2023-06-14T11:38:28;28.70;50.00
13326;DHT22;6732;51.044;3.746;2023-06-14T11:40:59;28.70;50.00
13326;DHT22;6732;51.044;3.746;2023-06-14T11:43:26;28.80;49.90
13326;DHT22;6732;51.044;3.746;2023-06-14T11:45:52;28.80;49.90
13326;DHT22;6732;51.044;3.746;2023-06-14T11:48:18;28.80;49.90
13326;DHT22;6732;51.044;3.746;2023-06-14T11:50:44;28.80;50.00
13326;DHT22;6732;51.044;3.746;2023-06-14T11:53:10;28.80;50.00
13326;DHT22;6732;51.044;3.746;2023-06-14T11:55:37;28.80;50.00
13326;DHT22;6732;51.044;3.746;2023-06-14T11:58:04;28.80;50.00
13326;DHT22;6732;51.044;3.746;2023-06-14T12:00:30;28.80;50.00
13326;DHT22;6732;51.044;3.746;2023-06-14T12:02:57;28.80;49.90
13326;DHT22;6732;51.044;3.746;2023-06-14T12:05:24;28.80;49.90
13326;DHT22;6732;51.044;3.746;2023-06-14T12:07:50;28.90;49.90
13326;DHT22;6732;51.044;3.746;2023-06-14T12:10:19;28.90;49.90
13326;DHT22;6732;51.044;3.746;2023-06-14T12:12:45;28.90;49.90
13326;DHT22;6732;51.044;3.746;2023-06-14T12:15:11;28.90;50.00
13326;DHT22;6732;51.044;3.746;2023-06-14T12:17:38;28.90;49.90
13326;DHT22;6732;51.044;3.746;2023-06-14T12:20:14;28.90;50.00
13326;DHT22;6732;51.044;3.746;2023-06-14T12:22:52;28.90;50.00
13326;DHT22;6732;51.044;3.746;2023-06-14T12:25:32;28.90;50.00
13326;DHT22;6732;51.044;3.746;2023-06-14T12:28:06;28.90;50.00
13326;DHT22;6732;51.044;3.746;2023-06-14T12:30:33;28.90;50.00
13326;DHT22;6732;51.044;3.746;2023-06-14T12:32:59;28.90;50.00
13326;DHT22;6732;51.044;3.746;2023-06-14T12:35:26;29.00;50.00
13326;DHT22;6732;51.044;3.746;2023-06-14T12:37:52;29.00;50.00
13326;DHT22;6732;51.044;3.746;2023-06-14T12:40:18;29.00;50.00
13326;DHT22;6732;51.044;3.746;2023-06-14T12:42:45;29.00;50.00
13326;DHT22;6732;51.044;3.746;2023-06-14T12:45:13;29.00;50.10
13326;DHT22;6732;51.044;3.746;2023-06-14T12:47:39;29.00;50.00
13326;DHT22;6732;51.044;3.746;2023-06-14T12:50:06;29.00;50.00
13326;DHT22;6732;51.044;3.746;2023-06-14T12:52:32;29.00;50.00
13326;DHT22;6732;51.044;3.746;2023-06-14T12:55:04;29.00;50.00
13326;DHT22;6732;51.044;3.746;2023-06-14T12:57:31;29.00;50.00
13326;DHT22;6732;51.044;3.746;2023-06-14T12:59:57;29.10;50.00
13326;DHT22;6732;51.044;3.746;2023-06-14T13:02:22;29.10;50.00
13326;DHT22;6732;51.044;3.746;2023-06-14T13:04:50;29.10;50.00
13326;DHT22;6732;51.044;3.746;2023-06-14T13:07:16;29.10;50.00
13326;DHT22;6732;51.044;3.746;2023-06-14T13:09:42;29.10;50.10
13326;DHT22;6732;51.044;3.746;2023-06-14T13:12:10;29.10;50.10
13326;DHT22;6732;51.044;3.746;2023-06-14T13:14:38;29.10;50.00
13326;DHT22;6732;51.044;3.746;2023-06-14T13:17:04;29.10;50.10
13326;DHT22;6732;51.044;3.746;2023-06-14T13:19:31;29.10;50.10
13326;DHT22;6732;51.044;3.746;2023-06-14T13:21:57;29.10;50.10
13326;DHT22;6732;51.044;3.746;2023-06-14T13:24:23;29.10;50.10
13326;DHT22;6732;51.044;3.746;2023-06-14T13:26:49;29.20;50.00
13326;DHT22;6732;51.044;3.746;2023-06-14T13:29:15;29.20;50.00
13326;DHT22;6732;51.044;3.746;2023-06-14T13:31:41;29.20;50.00
13326;DHT22;6732;51.044;3.746;2023-06-14T13:34:06;29.20;50.00
13326;DHT22;6732;51.044;3.746;2023-06-14T13:36:33;29.20;49.90
13326;DHT22;6732;51.044;3.746;2023-06-14T13:39:00;29.20;50.00
13326;DHT22;6732;51.044;3.746;2023-06-14T13:41:28;29.20;50.00
13326;DHT22;6732;51.044;3.746;2023-06-14T13:43:58;29.20;49.90
13326;DHT22;6732;51.044;3.746;2023-06-14T13:46:24;29.20;50.00
13326;DHT22;6732;51.044;3.746;2023-06-14T13:48:50;29.30;49.90
13326;DHT22;6732;51.044;3.746;2023-06-14T13:51:16;29.30;50.00
13326;DHT22;6732;51.044;3.746;2023-06-14T13:53:46;29.30;49.90
13326;DHT22;6732;51.044;3.746;2023-06-14T13:56:12;29.30;50.00
13326;DHT22;6732;51.044;3.746;2023-06-14T13:58:38;29.30;49.90
13326;DHT22;6732;51.044;3.746;2023-06-14T14:01:04;29.30;49.90
13326;DHT22;6732;51.044;3.746;2023-06-14T14:03:30;29.30;50.00
13326;DHT22;6732;51.044;3.746;2023-06-14T14:05:57;29.30;49.90
13326;DHT22;6732;51.044;3.746;2023-06-14T14:08:23;29.30;49.90
13326;DHT22;6732;51.044;3.746;2023-06-14T14:10:50;29.30;50.00
13326;DHT22;6732;51.044;3.746;2023-06-14T14:13:16;29.30;49.90
13326;DHT22;6732;51.044;3.746;2023-06-14T14:15:42;29.30;50.00
13326;DHT22;6732;51.044;3.746;2023-06-14T14:18:07;29.30;50.00
13326;DHT22;6732;51.044;3.746;2023-06-14T14:20:35;29.30;50.00
13326;DHT22;6732;51.044;3.746;2023-06-14T14:23:00;29.40;50.00
13326;DHT22;6732;51.044;3.746;2023-06-14T14:25:27;29.40;50.00
13326;DHT22;6732;51.044;3.746;2023-06-14T14:27:53;29.40;50.00
13326;DHT22;6732;51.044;3.746;2023-06-14T14:30:20;29.40;50.00
13326;DHT22;6732;51.044;3.746;2023-06-14T14:32:50;29.40;50.00
13326;DHT22;6732;51.044;3.746;2023-06-14T14:35:17;29.40;50.10
13326;DHT22;6732;51.044;3.746;2023-06-14T14:37:44;29.40;50.00
13326;DHT22;6732;51.044;3.746;2023-06-14T14:40:11;29.40;50.00
13326;DHT22;6732;51.044;3.746;2023-06-14T14:42:37;29.40;50.10
13326;DHT22;6732;51.044;3.746;2023-06-14T14:45:03;29.40;50.00
13326;DHT22;6732;51.044;3.746;2023-06-14T14:47:29;29.40;50.10
13326;DHT22;6732;51.044;3.746;2023-06-14T14:49:55;29.40;50.10
13326;DHT22;6732;51.044;3.746;2023-06-14T14:52:21;29.40;50.10
13326;DHT22;6732;51.044;3.746;2023-06-14T14:54:47;29.50;50.00
13326;DHT22;6732;51.044;3.746;2023-06-14T14:57:13;29.40;50.10
13326;DHT22;6732;51.044;3.746;2023-06-14T14:59:39;29.40;50.10
13326;DHT22;6732;51.044;3.746;2023-06-14T15:02:05;29.40;50.10
13326;DHT22;6732;51.044;3.746;2023-06-14T15:04:32;29.40;50.10
13326;DHT22;6732;51.044;3.746;2023-06-14T15:06:58;29.50;50.20
13326;DHT22;6732;51.044;3.746;2023-06-14T15:09:24;29.50;50.10
13326;DHT22;6732;51.044;3.746;2023-06-14T15:11:49;29.50;50.00
13326;DHT22;6732;51.044;3.746;2023-06-14T15:14:15;29.50;50.20
13326;DHT22;6732;51.044;3.746;2023-06-14T15:16:41;29.50;50.10
13326;DHT22;6732;51.044;3.746;2023-06-14T15:19:07;29.50;50.20
13326;DHT22;6732;51.044;3.746;2023-06-14T15:21:34;29.50;50.20
13326;DHT22;6732;51.044;3.746;2023-06-14T15:24:00;29.50;50.20
13326;DHT22;6732;51.044;3.746;2023-06-14T15:26:27;29.50;50.20
13326;DHT22;6732;51.044;3.746;2023-06-14T15:28:53;29.50;50.10
13326;DHT22;6732;51.044;3.746;2023-06-14T15:31:19;29.50;50.10
13326;DHT22;6732;51.044;3.746;2023-06-14T15:33:44;29.50;50.20
13326;DHT22;6732;51.044;3.746;2023-06-14T15:36:10;29.50;50.10
13326;DHT22;6732;51.044;3.746;2023-06-14T15:38:36;29.50;49.60
13326;DHT22;6732;51.044;3.746;2023-06-14T15:41:02;29.50;50.20
13326;DHT22;6732;51.044;3.746;2023-06-14T15:43:29;29.50;49.80
13326;DHT22;6732;51.044;3.746;2023-06-14T15:45:55;29.50;47.00
13326;DHT22;6732;51.044;3.746;2023-06-14T15:48:20;29.50;46.40
13326;DHT22;6732;51.044;3.746;2023-06-14T15:50:46;29.50;48.40
13326;DHT22;6732;51.044;3.746;2023-06-14T15:53:12;29.50;49.30
13326;DHT22;6732;51.044;3.746;2023-06-14T15:55:38;29.50;47.90
13326;DHT22;6732;51.044;3.746;2023-06-14T15:58:05;29.60;48.70
13326;DHT22;6732;51.044;3.746;2023-06-14T16:00:31;29.60;49.20
13326;DHT22;6732;51.044;3.746;2023-06-14T16:02:57;29.60;49.90
13326;DHT22;6732;51.044;3.746;2023-06-14T16:05:23;29.60;50.00
13326;DHT22;6732;51.044;3.746;2023-06-14T16:07:49;29.60;49.60
13326;DHT22;6732;51.044;3.746;2023-06-14T16:10:15;29.60;48.00
13326;DHT22;6732;51.044;3.746;2023-06-14T16:12:41;29.60;49.40
13326;DHT22;6732;51.044;3.746;2023-06-14T16:15:07;29.60;49.10
13326;DHT22;6732;51.044;3.746;2023-06-14T16:17:33;29.60;47.80